createdAt,value
2023-01-12T00:00:01.640Z,3.40
2023-01-12T00:00:15.235Z,3.50
2023-01-12T00:00:27.002Z,3.10
2023-01-12T00:00:38.961Z,3.00
2023-01-12T00:00:50.717Z,3.70
2023-01-12T00:01:01.504Z,3.60
2023-01-12T00:01:12.317Z,3.60
2023-01-12T00:01:25.076Z,3.10
2023-01-12T00:01:36.853Z,2.90
2023-01-12T00:01:47.690Z,3.50
2023-01-12T00:01:58.480Z,3.80
2023-01-12T00:02:09.300Z,3.70
2023-01-12T00:02:20.108Z,3.30
2023-01-12T00:02:32.921Z,2.70
2023-01-12T00:02:44.693Z,3.50
2023-01-12T00:02:55.513Z,3.90
2023-01-12T00:03:06.250Z,3.50
2023-01-12T00:03:17.021Z,3.00
2023-01-12T00:03:29.942Z,2.70
2023-01-12T00:03:41.725Z,2.60
2023-01-12T00:03:52.531Z,2.40
2023-01-12T00:04:04.259Z,2.50
2023-01-12T00:04:15.102Z,2.90
2023-01-12T00:04:27.424Z,2.80
2023-01-12T00:04:38.228Z,2.90
2023-01-12T00:04:49.959Z,2.90
2023-01-12T00:05:01.665Z,3.30
2023-01-12T00:05:12.448Z,3.60
2023-01-12T00:05:23.212Z,3.70
2023-01-12T00:05:35.672Z,3.60
2023-01-12T00:05:47.422Z,3.90
2023-01-12T00:05:59.132Z,3.80
2023-01-12T00:06:11.619Z,2.70
2023-01-12T00:06:23.347Z,2.60
2023-01-12T00:06:35.133Z,2.80
2023-01-12T00:06:48.317Z,3.20
2023-01-12T00:06:59.075Z,3.10
2023-01-12T00:07:11.515Z,3.10
2023-01-12T00:07:22.251Z,2.90
2023-01-12T00:07:33.282Z,2.80
2023-01-12T00:07:46.516Z,2.30
2023-01-12T00:07:59.493Z,2.30
2023-01-12T00:08:10.232Z,3.30
2023-01-12T00:08:20.979Z,3.40
2023-01-12T00:08:32.722Z,3.30
2023-01-12T00:08:44.442Z,2.80
2023-01-12T00:08:55.233Z,2.60
2023-01-12T00:09:07.777Z,2.50
2023-01-12T00:09:20.001Z,2.60
2023-01-12T00:09:32.249Z,2.20
2023-01-12T00:09:43.011Z,2.20
2023-01-12T00:09:55.744Z,2.70
2023-01-12T00:10:08.213Z,2.60
2023-01-12T00:10:21.196Z,2.30
2023-01-12T00:10:31.960Z,2.10
2023-01-12T00:10:43.687Z,2.50
2023-01-12T00:10:55.417Z,3.00
2023-01-12T00:11:08.135Z,2.90
2023-01-12T00:11:20.870Z,2.60
2023-01-12T00:11:34.841Z,2.50
2023-01-12T00:11:45.632Z,2.80
2023-01-12T00:11:58.101Z,2.80
2023-01-12T00:12:08.878Z,2.50
2023-01-12T00:12:20.599Z,2.40
2023-01-12T00:12:31.369Z,2.60
2023-01-12T00:12:42.145Z,2.60
2023-01-12T00:12:54.774Z,2.60
2023-01-12T00:13:07.227Z,2.30
2023-01-12T00:13:18.947Z,2.10
2023-01-12T00:13:30.902Z,2.20
2023-01-12T00:13:43.133Z,2.30
2023-01-12T00:13:55.862Z,2.20
2023-01-12T00:14:06.671Z,1.90
2023-01-12T00:14:17.439Z,2.10
2023-01-12T00:14:29.674Z,2.20
2023-01-12T00:14:42.132Z,2.20
2023-01-12T00:14:53.833Z,2.20
2023-01-12T00:15:05.822Z,2.20
2023-01-12T00:15:16.603Z,2.40
2023-01-12T00:15:29.044Z,2.50
2023-01-12T00:15:40.819Z,2.50
2023-01-12T00:15:51.603Z,2.30
2023-01-12T00:16:02.419Z,2.20
2023-01-12T00:16:13.217Z,2.10
2023-01-12T00:16:26.277Z,1.90
2023-01-12T00:16:37.089Z,1.90
2023-01-12T00:16:48.824Z,1.90
2023-01-12T00:17:00.571Z,2.20
2023-01-12T00:17:12.283Z,2.10
2023-01-12T00:17:23.065Z,2.30
2023-01-12T00:17:35.770Z,2.10
2023-01-12T00:17:48.016Z,2.40
2023-01-12T00:18:00.245Z,2.30
2023-01-12T00:18:13.458Z,2.50
2023-01-12T00:18:25.909Z,2.50
2023-01-12T00:18:37.624Z,2.20
2023-01-12T00:18:50.070Z,2.00
2023-01-12T00:19:01.803Z,2.00
2023-01-12T00:19:12.540Z,1.90
2023-01-12T00:19:24.278Z,2.00
2023-01-12T00:19:35.037Z,1.90
2023-01-12T00:19:47.355Z,1.90
2023-01-12T00:19:58.156Z,2.00
2023-01-12T00:20:09.902Z,2.20
2023-01-12T00:20:20.660Z,2.00
2023-01-12T00:20:31.407Z,2.00
2023-01-12T00:20:44.882Z,2.00
2023-01-12T00:20:55.656Z,2.20
2023-01-12T00:21:07.353Z,2.50
2023-01-12T00:21:19.108Z,2.60
2023-01-12T00:21:31.007Z,2.10
2023-01-12T00:21:43.261Z,2.10
2023-01-12T00:21:54.055Z,2.00
2023-01-12T00:22:07.781Z,2.10
2023-01-12T00:22:19.526Z,2.70
2023-01-12T00:22:30.304Z,2.70
2023-01-12T00:22:42.550Z,2.20
2023-01-12T00:22:53.312Z,2.20
2023-01-12T00:23:05.018Z,2.10
2023-01-12T00:23:17.520Z,2.40
2023-01-12T00:23:29.265Z,2.20
2023-01-12T00:23:41.718Z,2.00
2023-01-12T00:23:53.445Z,1.70
2023-01-12T00:24:04.258Z,1.90
2023-01-12T00:24:16.717Z,2.20
2023-01-12T00:24:28.660Z,2.20
2023-01-12T00:24:40.372Z,1.70
2023-01-12T00:24:52.851Z,1.90
2023-01-12T00:25:03.648Z,2.10
2023-01-12T00:25:16.858Z,2.00
2023-01-12T00:25:29.327Z,2.20
2023-01-12T00:25:40.107Z,2.00
2023-01-12T00:25:50.874Z,2.00
2023-01-12T00:26:03.352Z,2.10
2023-01-12T00:26:14.121Z,2.20
2023-01-12T00:26:24.917Z,2.10
2023-01-12T00:26:36.658Z,2.20
2023-01-12T00:26:47.530Z,2.30
2023-01-12T00:26:58.300Z,2.40
2023-01-12T00:27:09.091Z,2.60
2023-01-12T00:27:19.880Z,2.40
2023-01-12T00:27:34.017Z,2.10
2023-01-12T00:27:44.825Z,2.10
2023-01-12T00:27:55.599Z,1.90
2023-01-12T00:28:07.820Z,2.20
2023-01-12T00:28:22.539Z,1.80
2023-01-12T00:28:34.297Z,1.80
2023-01-12T00:28:47.488Z,1.90
2023-01-12T00:28:58.256Z,2.20
2023-01-12T00:29:10.023Z,1.90
2023-01-12T00:29:21.753Z,1.80
2023-01-12T00:29:32.522Z,1.90
2023-01-12T00:29:44.249Z,1.80
2023-01-12T00:29:55.015Z,2.20
2023-01-12T00:30:06.775Z,2.20
2023-01-12T00:30:18.887Z,2.10
2023-01-12T00:30:30.658Z,2.20
2023-01-12T00:30:43.123Z,2.00
2023-01-12T00:30:53.888Z,1.90
2023-01-12T00:31:04.655Z,1.70
2023-01-12T00:31:15.526Z,1.90
2023-01-12T00:31:26.348Z,2.00
2023-01-12T00:31:37.201Z,1.80
2023-01-12T00:31:50.416Z,2.00
2023-01-12T00:32:02.180Z,2.10
2023-01-12T00:32:14.996Z,2.20
2023-01-12T00:32:28.724Z,1.80
2023-01-12T00:32:41.170Z,1.80
2023-01-12T00:32:51.912Z,1.90
2023-01-12T00:33:04.420Z,1.90
2023-01-12T00:33:16.607Z,2.00
2023-01-12T00:33:28.120Z,2.00
2023-01-12T00:33:40.386Z,2.00
2023-01-12T00:33:52.823Z,1.80
2023-01-12T00:34:03.581Z,2.00
2023-01-12T00:34:15.297Z,2.20
2023-01-12T00:34:29.523Z,2.10
2023-01-12T00:34:42.329Z,2.00
2023-01-12T00:34:53.098Z,1.90
2023-01-12T00:35:03.880Z,2.30
2023-01-12T00:35:14.668Z,2.70
2023-01-12T00:35:25.421Z,2.50
2023-01-12T00:35:36.209Z,2.30
2023-01-12T00:35:47.010Z,2.10
2023-01-12T00:35:58.749Z,2.70
2023-01-12T00:36:10.508Z,2.40
2023-01-12T00:36:24.288Z,2.20
2023-01-12T00:36:35.086Z,1.80
2023-01-12T00:36:45.841Z,1.70
2023-01-12T00:36:56.619Z,2.00
2023-01-12T00:37:08.354Z,2.40
2023-01-12T00:37:21.305Z,2.60
2023-01-12T00:37:32.071Z,2.20
2023-01-12T00:37:45.041Z,2.30
2023-01-12T00:37:56.760Z,2.60
2023-01-12T00:38:09.201Z,2.90
2023-01-12T00:38:21.444Z,2.20
2023-01-12T00:38:33.440Z,2.50
2023-01-12T00:38:47.701Z,2.30
2023-01-12T00:39:00.166Z,2.70
2023-01-12T00:39:13.351Z,2.40
2023-01-12T00:39:25.068Z,1.80
2023-01-12T00:39:36.509Z,1.90
2023-01-12T00:40:01.502Z,2.00
2023-01-12T00:40:03.815Z,2.10
2023-01-12T00:40:16.768Z,2.20
2023-01-12T00:40:27.511Z,2.00
2023-01-12T00:40:39.981Z,1.80
2023-01-12T00:40:52.283Z,1.70
2023-01-12T00:41:04.101Z,1.60
2023-01-12T00:41:15.853Z,1.60
2023-01-12T00:41:26.634Z,1.70
2023-01-12T00:41:37.432Z,2.10
2023-01-12T00:41:49.645Z,2.20
2023-01-12T00:42:00.432Z,2.30
2023-01-12T00:42:12.910Z,2.00
2023-01-12T00:42:24.659Z,2.10
2023-01-12T00:42:36.910Z,2.30
2023-01-12T00:42:50.634Z,2.10
2023-01-12T00:43:01.450Z,1.90
2023-01-12T00:43:12.216Z,2.00
2023-01-12T00:43:24.662Z,2.00
2023-01-12T00:43:36.884Z,2.00
2023-01-12T00:43:49.335Z,1.80
2023-01-12T00:44:02.532Z,1.80
2023-01-12T00:44:13.292Z,2.00
2023-01-12T00:44:25.021Z,2.20
2023-01-12T00:44:35.785Z,2.30
2023-01-12T00:44:47.977Z,2.10
2023-01-12T00:45:00.435Z,1.90
2023-01-12T00:45:12.175Z,2.20
2023-01-12T00:45:23.044Z,2.20
2023-01-12T00:45:33.867Z,1.90
2023-01-12T00:45:44.622Z,1.80
2023-01-12T00:45:55.397Z,1.80
2023-01-12T00:46:06.166Z,1.90
2023-01-12T00:46:17.932Z,2.00
2023-01-12T00:46:29.699Z,2.20
2023-01-12T00:46:40.472Z,2.50
2023-01-12T00:46:52.244Z,2.60
2023-01-12T00:47:02.981Z,2.60
2023-01-12T00:47:15.192Z,2.20
2023-01-12T00:47:27.645Z,2.20
2023-01-12T00:47:38.382Z,2.00
2023-01-12T00:47:49.136Z,2.40
2023-01-12T00:47:59.877Z,2.60
2023-01-12T00:48:10.627Z,2.20
2023-01-12T00:48:21.410Z,2.10
2023-01-12T00:48:32.234Z,2.00
2023-01-12T00:48:44.201Z,2.50
2023-01-12T00:48:55.932Z,2.30
2023-01-12T00:49:08.162Z,2.20
2023-01-12T00:49:19.911Z,2.00
2023-01-12T00:49:32.372Z,2.10
2023-01-12T00:49:44.136Z,1.90
2023-01-12T00:49:56.595Z,1.90
2023-01-12T00:50:07.375Z,1.80
2023-01-12T00:50:20.561Z,2.00
2023-01-12T00:50:32.293Z,1.90
2023-01-12T00:50:44.253Z,1.70
2023-01-12T00:50:56.003Z,2.00
2023-01-12T00:51:08.434Z,2.20
2023-01-12T00:51:20.232Z,2.20
2023-01-12T00:51:32.107Z,1.90
2023-01-12T00:51:42.874Z,2.30
2023-01-12T00:51:55.077Z,2.20
2023-01-12T00:52:07.571Z,2.00
2023-01-12T00:52:29.957Z,2.30
2023-01-12T00:52:34.977Z,3.00
2023-01-12T00:52:45.766Z,2.50
2023-01-12T00:52:57.510Z,2.30
2023-01-12T00:53:08.320Z,2.00
2023-01-12T00:53:22.526Z,2.10
2023-01-12T00:53:34.362Z,1.90
2023-01-12T00:53:46.165Z,1.60
2023-01-12T00:53:56.945Z,1.60
2023-01-12T00:54:07.741Z,1.70
2023-01-12T00:54:20.184Z,1.70
2023-01-12T00:54:32.663Z,2.20
2023-01-12T00:54:43.396Z,2.60
2023-01-12T00:54:55.113Z,2.50
2023-01-12T00:55:06.848Z,2.40
2023-01-12T00:55:17.689Z,2.10
2023-01-12T00:55:28.477Z,1.80
2023-01-12T00:55:41.427Z,2.60
2023-01-12T00:55:54.636Z,2.70
2023-01-12T00:56:06.361Z,3.10
2023-01-12T00:56:18.066Z,3.00
2023-01-12T00:56:30.545Z,2.80
2023-01-12T00:56:43.000Z,2.40
2023-01-12T00:56:54.717Z,2.40
2023-01-12T00:57:06.487Z,2.10
2023-01-12T00:57:18.830Z,2.30
2023-01-12T00:57:31.286Z,2.20
2023-01-12T00:57:43.266Z,2.10
2023-01-12T00:57:55.770Z,2.20
2023-01-12T00:58:06.534Z,2.20
2023-01-12T00:58:17.314Z,2.00
2023-01-12T00:58:28.106Z,1.80
2023-01-12T00:58:39.855Z,2.10
2023-01-12T00:58:52.079Z,2.40
2023-01-12T00:59:04.496Z,2.70
2023-01-12T00:59:16.977Z,2.50
2023-01-12T00:59:29.529Z,2.00
2023-01-12T00:59:41.981Z,1.70
2023-01-12T00:59:52.776Z,2.10
2023-01-12T01:00:05.266Z,2.20
2023-01-12T01:00:17.079Z,2.00
2023-01-12T01:00:29.527Z,1.90
2023-01-12T01:00:41.216Z,2.10
2023-01-12T01:00:52.935Z,2.20
2023-01-12T01:01:04.724Z,1.90
2023-01-12T01:01:15.720Z,1.90
2023-01-12T01:01:26.641Z,1.90
2023-01-12T01:01:38.255Z,2.10
2023-01-12T01:01:49.222Z,2.70
2023-01-12T01:02:02.085Z,2.50
2023-01-12T01:02:14.811Z,2.20
2023-01-12T01:02:26.653Z,2.10
2023-01-12T01:02:37.490Z,2.50
2023-01-12T01:02:48.405Z,2.30
2023-01-12T01:03:00.991Z,2.20
2023-01-12T01:03:12.808Z,1.70
2023-01-12T01:03:24.548Z,1.90
2023-01-12T01:03:36.607Z,1.90
2023-01-12T01:03:49.116Z,1.90
2023-01-12T01:04:00.875Z,1.80
2023-01-12T01:04:11.700Z,1.80
2023-01-12T01:04:23.453Z,1.90
2023-01-12T01:04:35.743Z,2.10
2023-01-12T01:04:46.576Z,2.20
2023-01-12T01:04:58.346Z,2.10
2023-01-12T01:05:09.122Z,2.00
2023-01-12T01:05:21.622Z,1.90
2023-01-12T01:05:33.395Z,2.30
2023-01-12T01:05:44.249Z,2.40
2023-01-12T01:05:55.048Z,2.10
2023-01-12T01:06:05.863Z,2.00
2023-01-12T01:06:17.654Z,1.90
2023-01-12T01:06:28.453Z,1.80
2023-01-12T01:06:40.268Z,1.80
2023-01-12T01:06:52.523Z,1.80
2023-01-12T01:07:03.279Z,2.20
2023-01-12T01:07:15.801Z,2.50
2023-01-12T01:07:26.669Z,2.20
2023-01-12T01:07:38.366Z,2.10
2023-01-12T01:07:49.120Z,1.80
2023-01-12T01:07:59.928Z,2.00
2023-01-12T01:08:11.704Z,2.10
2023-01-12T01:08:22.520Z,2.00
2023-01-12T01:08:34.211Z,2.00
2023-01-12T01:08:44.966Z,2.10
2023-01-12T01:08:56.764Z,2.20
2023-01-12T01:09:07.527Z,2.40
2023-01-12T01:09:18.344Z,2.40
2023-01-12T01:09:29.103Z,1.90
2023-01-12T01:09:41.380Z,1.90
2023-01-12T01:09:54.616Z,1.80
2023-01-12T01:10:05.401Z,1.90
2023-01-12T01:10:16.223Z,1.80
2023-01-12T01:10:28.502Z,2.20
2023-01-12T01:10:39.279Z,2.30
2023-01-12T01:10:51.049Z,2.40
2023-01-12T01:11:01.854Z,2.10
2023-01-12T01:11:13.607Z,2.30
2023-01-12T01:11:25.397Z,2.30
2023-01-12T01:11:36.143Z,2.20
2023-01-12T01:11:46.933Z,2.00
2023-01-12T01:11:58.673Z,2.10
2023-01-12T01:12:10.452Z,2.10
2023-01-12T01:12:21.264Z,2.00
2023-01-12T01:12:32.062Z,1.80
2023-01-12T01:12:43.857Z,1.70
2023-01-12T01:12:54.676Z,1.80
2023-01-12T01:13:06.408Z,1.90
2023-01-12T01:13:17.200Z,2.10
2023-01-12T01:13:28.958Z,2.20
2023-01-12T01:13:39.862Z,2.30
2023-01-12T01:13:51.676Z,2.30
2023-01-12T01:14:03.449Z,2.10
2023-01-12T01:14:14.230Z,1.90
2023-01-12T01:14:25.069Z,1.90
2023-01-12T01:14:35.870Z,1.90
2023-01-12T01:14:46.620Z,2.50
2023-01-12T01:14:57.445Z,2.70
2023-01-12T01:15:08.253Z,2.60
2023-01-12T01:15:18.998Z,1.90
2023-01-12T01:15:29.814Z,2.20
2023-01-12T01:15:42.310Z,2.30
2023-01-12T01:15:54.105Z,2.20
2023-01-12T01:16:04.970Z,2.10
2023-01-12T01:16:15.800Z,2.30
2023-01-12T01:16:26.663Z,2.30
2023-01-12T01:16:37.484Z,2.20
2023-01-12T01:16:48.256Z,1.90
2023-01-12T01:16:59.064Z,2.00
2023-01-12T01:17:11.539Z,2.00
2023-01-12T01:17:25.267Z,2.40
2023-01-12T01:17:36.030Z,2.50
2023-01-12T01:17:46.792Z,2.40
2023-01-12T01:17:57.580Z,1.70
2023-01-12T01:18:09.300Z,2.00
2023-01-12T01:18:20.050Z,2.10
2023-01-12T01:18:30.873Z,2.10
2023-01-12T01:18:41.621Z,2.00
2023-01-12T01:18:52.402Z,2.20
2023-01-12T01:19:03.181Z,2.30
2023-01-12T01:19:13.951Z,2.20
2023-01-12T01:19:25.643Z,1.80
2023-01-12T01:19:36.386Z,2.00
2023-01-12T01:19:48.822Z,2.00
2023-01-12T01:19:59.573Z,2.00
2023-01-12T01:20:11.807Z,1.80
2023-01-12T01:20:23.427Z,2.00
2023-01-12T01:20:34.241Z,2.00
2023-01-12T01:20:46.704Z,2.10
2023-01-12T01:20:57.514Z,1.90
2023-01-12T01:21:09.221Z,1.70
2023-01-12T01:21:20.963Z,1.70
2023-01-12T01:21:31.722Z,1.80
2023-01-12T01:21:42.592Z,1.90
2023-01-12T01:21:53.369Z,2.00
2023-01-12T01:22:04.139Z,1.90
2023-01-12T01:22:15.878Z,1.80
2023-01-12T01:22:26.655Z,1.80
2023-01-12T01:22:38.373Z,2.00
2023-01-12T01:22:49.143Z,2.00
2023-01-12T01:22:59.912Z,2.20
2023-01-12T01:23:12.348Z,2.10
2023-01-12T01:23:23.107Z,2.00
2023-01-12T01:23:35.602Z,2.10
2023-01-12T01:23:46.352Z,2.20
2023-01-12T01:23:58.543Z,2.10
2023-01-12T01:24:13.294Z,2.20
2023-01-12T01:24:28.004Z,2.00
2023-01-12T01:24:40.761Z,2.10
2023-01-12T01:24:53.279Z,2.50
2023-01-12T01:25:06.503Z,2.60
2023-01-12T01:25:17.281Z,2.50
2023-01-12T01:25:31.262Z,2.20
2023-01-12T01:25:43.733Z,2.00
2023-01-12T01:25:54.493Z,1.80
2023-01-12T01:26:28.351Z,0.00
2023-01-12T01:26:40.052Z,2.40
2023-01-12T01:26:53.264Z,2.40
2023-01-12T01:27:05.714Z,1.90
2023-01-12T01:27:18.163Z,1.70
2023-01-12T01:27:29.834Z,1.90
2023-01-12T01:27:42.291Z,2.20
2023-01-12T01:27:54.739Z,2.40
2023-01-12T01:28:05.482Z,2.30
2023-01-12T01:28:17.949Z,2.20
2023-01-12T01:28:30.420Z,1.80
2023-01-12T01:28:42.837Z,1.60
2023-01-12T01:28:53.602Z,1.70
2023-01-12T01:29:04.360Z,2.20
2023-01-12T01:29:16.047Z,2.20
2023-01-12T01:29:28.502Z,2.00
2023-01-12T01:29:40.726Z,2.10
2023-01-12T01:29:52.495Z,2.10
2023-01-12T01:30:03.254Z,1.90
2023-01-12T01:30:13.993Z,2.10
2023-01-12T01:30:26.460Z,2.00
2023-01-12T01:30:37.207Z,2.50
2023-01-12T01:30:49.715Z,2.50
2023-01-12T01:31:00.522Z,2.60
2023-01-12T01:31:11.308Z,2.30
2023-01-12T01:31:22.114Z,2.70
2023-01-12T01:31:33.959Z,2.70
2023-01-12T01:31:45.724Z,2.50
2023-01-12T01:31:56.491Z,2.00
2023-01-12T01:32:09.700Z,1.80
2023-01-12T01:32:21.948Z,2.20
2023-01-12T01:32:33.680Z,2.90
2023-01-12T01:32:45.402Z,2.80
2023-01-12T01:32:57.874Z,2.80
2023-01-12T01:33:08.732Z,2.50
2023-01-12T01:33:19.494Z,2.10
2023-01-12T01:33:30.293Z,2.20
2023-01-12T01:33:41.100Z,2.00
2023-01-12T01:33:51.857Z,2.00
2023-01-12T01:34:02.693Z,2.00
2023-01-12T01:34:14.412Z,2.00
2023-01-12T01:34:27.404Z,2.00
2023-01-12T01:34:39.836Z,2.10
2023-01-12T01:34:50.653Z,2.60
2023-01-12T01:35:03.119Z,2.40
2023-01-12T01:35:13.954Z,2.30
2023-01-12T01:35:25.711Z,2.20
2023-01-12T01:35:36.520Z,2.10
2023-01-12T01:35:47.344Z,2.10
2023-01-12T01:35:58.133Z,2.00
2023-01-12T01:36:08.913Z,2.00
2023-01-12T01:36:19.822Z,2.10
2023-01-12T01:36:30.645Z,2.10
2023-01-12T01:36:41.500Z,2.00
2023-01-12T01:36:52.281Z,2.00
2023-01-12T01:37:03.012Z,1.80
2023-01-12T01:37:13.733Z,1.80
2023-01-12T01:37:25.545Z,1.80
2023-01-12T01:37:36.302Z,1.90
2023-01-12T01:37:49.534Z,2.50
2023-01-12T01:38:00.285Z,2.40
2023-01-12T01:38:11.103Z,2.30
2023-01-12T01:38:21.953Z,1.90
2023-01-12T01:38:33.696Z,1.90
2023-01-12T01:38:44.458Z,1.60
2023-01-12T01:38:55.225Z,1.90
2023-01-12T01:39:05.966Z,2.20
2023-01-12T01:39:16.700Z,2.40
2023-01-12T01:39:27.537Z,2.20
2023-01-12T01:39:38.268Z,2.00
2023-01-12T01:39:49.997Z,1.90
2023-01-12T01:40:00.736Z,1.90
2023-01-12T01:40:11.487Z,1.90
2023-01-12T01:40:24.215Z,1.90
2023-01-12T01:40:34.954Z,1.80
2023-01-12T01:40:45.726Z,1.80
2023-01-12T01:40:56.500Z,1.80
2023-01-12T01:41:08.273Z,1.80
2023-01-12T01:41:19.093Z,1.90
2023-01-12T01:41:31.544Z,2.10
2023-01-12T01:41:43.667Z,2.40
2023-01-12T01:41:54.502Z,2.00
2023-01-12T01:42:05.254Z,1.70
2023-01-12T01:42:16.093Z,1.70
2023-01-12T01:42:28.740Z,1.90
2023-01-12T01:42:39.515Z,1.80
2023-01-12T01:42:50.377Z,1.90
2023-01-12T01:43:01.124Z,1.90
2023-01-12T01:43:12.825Z,1.80
2023-01-12T01:43:23.638Z,1.80
2023-01-12T01:43:35.393Z,1.90
2023-01-12T01:43:46.205Z,1.90
2023-01-12T01:43:56.991Z,1.80
2023-01-12T01:44:07.743Z,1.80
2023-01-12T01:44:20.954Z,1.70
2023-01-12T01:44:32.716Z,1.90
2023-01-12T01:44:45.477Z,1.50
2023-01-12T01:44:57.216Z,1.60
2023-01-12T01:45:08.924Z,1.70
2023-01-12T01:45:21.677Z,1.70
2023-01-12T01:45:34.902Z,1.90
2023-01-12T01:45:48.115Z,1.90
2023-01-12T01:46:01.887Z,1.80
2023-01-12T01:46:15.662Z,1.80
2023-01-12T01:46:27.545Z,1.90
2023-01-12T01:46:40.098Z,1.80
2023-01-12T01:46:53.047Z,1.80
2023-01-12T01:47:05.526Z,1.70
2023-01-12T01:47:17.277Z,1.80
2023-01-12T01:47:28.022Z,1.70
2023-01-12T01:47:40.756Z,1.80
2023-01-12T01:47:51.507Z,1.70
2023-01-12T01:48:04.707Z,1.80
2023-01-12T01:48:15.482Z,1.50
2023-01-12T01:48:28.231Z,1.80
2023-01-12T01:48:39.957Z,2.00
2023-01-12T01:48:53.165Z,1.90
2023-01-12T01:49:03.926Z,1.70
2023-01-12T01:49:17.136Z,1.90
2023-01-12T01:49:27.885Z,2.10
2023-01-12T01:49:40.828Z,1.90
2023-01-12T01:49:51.604Z,1.80
2023-01-12T01:50:04.058Z,2.10
2023-01-12T01:50:14.830Z,2.00
2023-01-12T01:50:29.070Z,1.90
2023-01-12T01:50:39.899Z,1.90
2023-01-12T01:50:51.636Z,2.10
2023-01-12T01:51:03.345Z,2.20
2023-01-12T01:51:15.795Z,1.80
2023-01-12T01:51:29.006Z,1.80
2023-01-12T01:51:41.249Z,1.90
2023-01-12T01:51:53.686Z,2.10
2023-01-12T01:52:04.449Z,1.90
2023-01-12T01:52:17.665Z,2.20
2023-01-12T01:52:28.410Z,2.30
2023-01-12T01:52:39.155Z,2.20
2023-01-12T01:52:49.932Z,1.70
2023-01-12T01:53:02.399Z,1.60
2023-01-12T01:53:13.146Z,1.60
2023-01-12T01:53:23.962Z,1.70
2023-01-12T01:53:36.179Z,1.90
2023-01-12T01:53:47.900Z,1.90
2023-01-12T01:53:58.680Z,1.80
2023-01-12T01:54:09.477Z,1.90
2023-01-12T01:54:20.244Z,2.10
2023-01-12T01:54:30.981Z,2.20
2023-01-12T01:54:41.761Z,2.00
2023-01-12T01:54:54.235Z,1.80
2023-01-12T01:55:05.986Z,2.00
2023-01-12T01:55:17.756Z,2.00
2023-01-12T01:55:29.481Z,2.10
2023-01-12T01:55:40.227Z,2.00
2023-01-12T01:55:51.978Z,2.00
2023-01-12T01:56:02.787Z,1.90
2023-01-12T01:56:13.598Z,2.00
2023-01-12T01:56:24.423Z,2.10
2023-01-12T01:56:35.189Z,2.00
2023-01-12T01:56:48.388Z,1.90
2023-01-12T01:56:59.169Z,1.90
2023-01-12T01:57:09.917Z,1.70
2023-01-12T01:57:22.388Z,1.70
2023-01-12T01:57:34.427Z,2.00
2023-01-12T01:57:45.281Z,2.00
2023-01-12T01:57:57.028Z,2.00
2023-01-12T01:58:08.774Z,1.90
2023-01-12T01:58:19.567Z,1.80
2023-01-12T01:58:32.066Z,1.60
2023-01-12T01:58:42.867Z,2.00
2023-01-12T01:58:54.626Z,2.10
2023-01-12T01:59:05.411Z,2.10
2023-01-12T01:59:16.194Z,2.00
2023-01-12T01:59:26.951Z,2.20
2023-01-12T01:59:37.739Z,2.10
2023-01-12T01:59:49.466Z,1.90
2023-01-12T02:00:01.207Z,1.70
2023-01-12T02:00:11.979Z,2.10
2023-01-12T02:00:23.719Z,2.10
2023-01-12T02:00:35.450Z,2.10
2023-01-12T02:00:46.238Z,1.80
2023-01-12T02:00:57.129Z,1.70
2023-01-12T02:01:07.989Z,1.70
2023-01-12T02:01:19.867Z,2.10
2023-01-12T02:01:30.784Z,2.10
2023-01-12T02:01:41.829Z,2.00
2023-01-12T02:01:53.695Z,1.70
2023-01-12T02:02:04.532Z,1.80
2023-01-12T02:02:16.387Z,1.80
2023-01-12T02:02:27.269Z,1.70
2023-01-12T02:02:39.757Z,1.60
2023-01-12T02:02:50.533Z,1.70
2023-01-12T02:03:02.252Z,1.60
2023-01-12T02:03:15.365Z,1.70
2023-01-12T02:03:27.635Z,1.80
2023-01-12T02:03:38.426Z,1.60
2023-01-12T02:03:49.257Z,1.50
2023-01-12T02:04:00.957Z,2.00
2023-01-12T02:04:11.750Z,2.10
2023-01-12T02:04:24.699Z,2.10
2023-01-12T02:04:35.524Z,1.70
2023-01-12T02:04:47.957Z,1.90
2023-01-12T02:04:58.707Z,2.00
2023-01-12T02:05:10.402Z,1.90
2023-01-12T02:05:24.123Z,1.80
2023-01-12T02:05:37.873Z,1.80
2023-01-12T02:05:50.904Z,1.90
2023-01-12T02:06:04.047Z,2.00
2023-01-12T02:06:15.772Z,1.90
2023-01-12T02:06:26.530Z,1.90
2023-01-12T02:06:37.332Z,1.90
2023-01-12T02:06:48.182Z,2.20
2023-01-12T02:06:58.939Z,2.10
2023-01-12T02:07:11.382Z,2.10
2023-01-12T02:07:24.374Z,2.00
2023-01-12T02:07:36.793Z,2.20
2023-01-12T02:07:49.015Z,2.30
2023-01-12T02:07:59.846Z,2.30
2023-01-12T02:08:12.850Z,2.40
2023-01-12T02:08:25.030Z,2.30
2023-01-12T02:08:35.792Z,2.20
2023-01-12T02:08:48.012Z,2.20
2023-01-12T02:09:00.491Z,2.20
2023-01-12T02:09:13.225Z,2.70
2023-01-12T02:09:25.682Z,2.60
2023-01-12T02:09:38.921Z,2.40
2023-01-12T02:09:52.121Z,2.00
2023-01-12T02:10:03.840Z,2.10
2023-01-12T02:10:15.603Z,2.30
2023-01-12T02:10:48.521Z,0.00
2023-01-12T02:11:00.241Z,2.40
2023-01-12T02:11:11.022Z,2.40
2023-01-12T02:11:23.512Z,2.40
2023-01-12T02:11:36.022Z,2.40
2023-01-12T02:11:47.726Z,2.40
2023-01-12T02:11:59.941Z,2.30
2023-01-12T02:12:12.921Z,2.20
2023-01-12T02:12:23.664Z,2.30
2023-01-12T02:12:35.458Z,2.30
2023-01-12T02:12:46.242Z,2.40
2023-01-12T02:12:56.981Z,2.10
2023-01-12T02:13:08.716Z,2.20
2023-01-12T02:13:21.206Z,2.30
2023-01-12T02:13:34.434Z,2.70
2023-01-12T02:13:46.200Z,2.80
2023-01-12T02:13:57.922Z,2.80
2023-01-12T02:14:09.679Z,2.20
2023-01-12T02:14:22.902Z,2.20
2023-01-12T02:14:33.664Z,2.20
2023-01-12T02:14:44.441Z,2.30
2023-01-12T02:14:55.184Z,2.60
2023-01-12T02:15:05.943Z,2.50
2023-01-12T02:15:17.674Z,2.90
2023-01-12T02:15:29.406Z,2.80
2023-01-12T02:15:41.639Z,2.60
2023-01-12T02:15:53.425Z,2.40
2023-01-12T02:16:05.202Z,2.30
2023-01-12T02:16:16.061Z,2.60
2023-01-12T02:16:29.054Z,2.50
2023-01-12T02:16:39.884Z,2.20
2023-01-12T02:16:51.644Z,2.20
2023-01-12T02:17:02.445Z,2.10
2023-01-12T02:17:14.241Z,2.70
2023-01-12T02:17:26.961Z,2.80
2023-01-12T02:17:38.665Z,2.50
2023-01-12T02:17:49.454Z,2.40
2023-01-12T02:18:01.207Z,2.40
2023-01-12T02:18:12.964Z,2.30
2023-01-12T02:18:26.185Z,2.40
2023-01-12T02:18:37.016Z,2.40
2023-01-12T02:18:48.772Z,2.40
2023-01-12T02:18:59.542Z,2.40
2023-01-12T02:19:11.983Z,2.50
2023-01-12T02:19:22.766Z,2.50
2023-01-12T02:19:35.223Z,2.40
2023-01-12T02:19:46.015Z,2.30
2023-01-12T02:19:56.753Z,2.30
2023-01-12T02:20:07.774Z,2.30
2023-01-12T02:20:18.574Z,2.40
2023-01-12T02:20:29.331Z,2.80
2023-01-12T02:20:41.130Z,2.90
2023-01-12T02:20:51.912Z,2.80
2023-01-12T02:21:04.205Z,2.70
2023-01-12T02:21:14.941Z,2.60
2023-01-12T02:21:25.688Z,2.50
2023-01-12T02:21:36.463Z,2.00
2023-01-12T02:21:47.347Z,2.10
2023-01-12T02:21:58.136Z,2.30
2023-01-12T02:22:08.896Z,2.40
2023-01-12T02:22:19.701Z,2.30
2023-01-12T02:22:31.935Z,2.50
2023-01-12T02:22:42.718Z,2.70
2023-01-12T02:22:53.525Z,2.70
2023-01-12T02:23:05.794Z,2.50
2023-01-12T02:23:18.224Z,2.30
2023-01-12T02:23:29.958Z,2.40
2023-01-12T02:23:40.956Z,2.60
2023-01-12T02:23:52.674Z,2.50
2023-01-12T02:24:03.476Z,2.30
2023-01-12T02:24:14.248Z,2.20
2023-01-12T02:24:25.006Z,2.30
2023-01-12T02:24:37.774Z,2.30
2023-01-12T02:24:49.518Z,2.40
2023-01-12T02:25:01.285Z,2.30
2023-01-12T02:25:12.088Z,2.30
2023-01-12T02:25:24.497Z,2.30
2023-01-12T02:25:36.711Z,2.30
2023-01-12T02:25:49.178Z,2.10
2023-01-12T02:26:01.683Z,2.50
2023-01-12T02:26:15.389Z,2.40
2023-01-12T02:26:27.825Z,2.20
2023-01-12T02:26:39.573Z,2.20
2023-01-12T02:26:52.577Z,2.20
2023-01-12T02:27:03.357Z,2.20
2023-01-12T02:27:15.129Z,2.20
2023-01-12T02:27:27.326Z,2.00
2023-01-12T02:27:39.587Z,2.00
2023-01-12T02:27:51.835Z,2.10
2023-01-12T02:28:02.606Z,2.20
2023-01-12T02:28:14.795Z,2.10
2023-01-12T02:28:27.285Z,1.80
2023-01-12T02:28:39.546Z,2.10
2023-01-12T02:28:52.771Z,2.30
2023-01-12T02:29:03.591Z,2.50
2023-01-12T02:29:16.050Z,2.50
2023-01-12T02:29:28.295Z,2.20
2023-01-12T02:29:39.115Z,1.80
2023-01-12T02:29:49.857Z,1.80
2023-01-12T02:30:01.556Z,1.90
2023-01-12T02:30:13.290Z,2.00
2023-01-12T02:30:25.521Z,2.20
2023-01-12T02:30:37.318Z,2.30
2023-01-12T02:30:49.750Z,2.50
2023-01-12T02:31:02.310Z,2.40
2023-01-12T02:31:14.619Z,2.10
2023-01-12T02:31:26.408Z,1.90
2023-01-12T02:31:38.217Z,2.00
2023-01-12T02:31:48.987Z,2.20
2023-01-12T02:32:01.429Z,2.40
2023-01-12T02:32:13.882Z,3.00
2023-01-12T02:32:27.107Z,2.80
2023-01-12T02:32:39.569Z,2.20
2023-01-12T02:32:52.823Z,2.20
2023-01-12T02:33:04.577Z,2.10
2023-01-12T02:33:16.554Z,2.40
2023-01-12T02:33:30.042Z,2.20
2023-01-12T02:33:43.072Z,1.90
2023-01-12T02:33:53.805Z,2.10
2023-01-12T02:34:06.028Z,2.10
2023-01-12T02:34:17.767Z,2.10
2023-01-12T02:34:30.225Z,2.10
2023-01-12T02:34:40.960Z,2.70
2023-01-12T02:34:52.705Z,3.10
2023-01-12T02:35:04.427Z,3.00
2023-01-12T02:35:16.426Z,2.20
2023-01-12T02:35:28.142Z,1.90
2023-01-12T02:35:39.908Z,2.00
2023-01-12T02:35:50.688Z,2.20
2023-01-12T02:36:01.439Z,2.20